createdAt,value
2023-01-19T00:00:26.380Z,49.82
2023-01-19T00:01:26.273Z,54.34
2023-01-19T00:02:26.290Z,61.00
2023-01-19T00:03:26.289Z,55.69
2023-01-19T00:04:26.862Z,51.46
2023-01-19T00:05:27.248Z,59.65
2023-01-19T00:06:26.334Z,56.84
2023-01-19T00:07:26.234Z,62.12
2023-01-19T00:08:26.224Z,54.37
2023-01-19T00:09:26.219Z,57.15
2023-01-19T00:10:26.206Z,57.05
2023-01-19T00:11:26.246Z,52.94
2023-01-19T00:12:26.185Z,50.25
2023-01-19T00:13:26.190Z,49.75
2023-01-19T00:14:26.181Z,50.67
2023-01-19T00:15:26.178Z,56.85
2023-01-19T00:16:26.235Z,55.28
2023-01-19T00:17:26.156Z,58.10
2023-01-19T00:18:26.154Z,55.36
2023-01-19T00:19:26.146Z,54.30
2023-01-19T00:20:26.144Z,53.78
2023-01-19T00:21:26.131Z,57.39
2023-01-19T00:22:26.131Z,45.71
2023-01-19T00:23:26.123Z,48.85
2023-01-19T00:24:26.123Z,55.50
2023-01-19T00:27:28.228Z,47.13
2023-01-19T00:28:27.363Z,43.92
2023-01-19T00:29:27.356Z,51.97
2023-01-19T00:30:27.357Z,60.69
2023-01-19T00:31:27.370Z,45.99
2023-01-19T00:32:27.347Z,46.24
2023-01-19T00:33:27.328Z,61.06
2023-01-19T00:34:27.322Z,51.88
2023-01-19T00:35:27.327Z,57.09
2023-01-19T00:36:27.302Z,55.92
2023-01-19T00:37:27.299Z,45.30
2023-01-19T00:38:27.310Z,53.76
2023-01-19T00:39:27.280Z,44.22
2023-01-19T00:40:27.272Z,43.59
2023-01-19T00:41:28.369Z,53.21
2023-01-19T00:42:28.351Z,57.92
2023-01-19T00:43:28.346Z,58.60
2023-01-19T00:44:28.341Z,51.89
2023-01-19T00:45:28.359Z,55.46
2023-01-19T00:46:29.243Z,48.72
2023-01-19T00:47:28.316Z,56.12
2023-01-19T00:48:28.323Z,46.18
2023-01-19T00:49:28.306Z,54.84
2023-01-19T00:50:28.291Z,50.99
2023-01-19T00:51:29.299Z,65.84
2023-01-19T00:52:28.288Z,52.01
2023-01-19T00:53:28.271Z,50.54
2023-01-19T00:54:28.272Z,57.34
2023-01-19T00:55:28.257Z,56.85
2023-01-19T00:56:28.257Z,47.10
2023-01-19T00:57:28.244Z,45.37
2023-01-19T00:58:28.230Z,60.88
2023-01-19T00:59:28.224Z,45.76
2023-01-19T01:00:28.227Z,47.24
2023-01-19T01:01:45.866Z,48.84
2023-01-19T01:02:29.423Z,47.59
2023-01-19T01:03:29.194Z,54.67
2023-01-19T01:04:28.194Z,52.18
2023-01-19T01:05:28.181Z,53.91
2023-01-19T01:06:28.178Z,47.42
2023-01-19T01:07:28.740Z,43.89
2023-01-19T01:08:28.162Z,53.25
2023-01-19T01:09:28.171Z,51.88
2023-01-19T01:10:28.161Z,52.35
2023-01-19T01:11:28.141Z,51.94
2023-01-19T01:12:28.175Z,54.79
2023-01-19T01:13:28.483Z,53.07
2023-01-19T01:14:28.120Z,54.00
2023-01-19T01:15:28.161Z,57.96
2023-01-19T01:16:28.108Z,57.09
2023-01-19T01:17:28.091Z,57.44
2023-01-19T01:18:28.081Z,57.36
2023-01-19T01:19:28.068Z,59.49
2023-01-19T01:20:28.288Z,51.79
2023-01-19T01:21:28.058Z,51.93
2023-01-19T01:22:28.057Z,57.05
2023-01-19T01:23:28.072Z,60.11
2023-01-19T01:24:28.043Z,58.02
2023-01-19T01:25:28.033Z,56.16
2023-01-19T01:26:28.016Z,49.55
2023-01-19T01:27:28.002Z,60.41
2023-01-19T01:28:27.999Z,53.83
2023-01-19T01:29:27.992Z,61.83
2023-01-19T01:30:28.023Z,48.10
2023-01-19T01:31:28.003Z,44.83
2023-01-19T01:32:27.959Z,54.49
2023-01-19T01:33:40.638Z,46.76
2023-01-19T01:34:28.947Z,53.52
2023-01-19T01:35:27.951Z,57.65
2023-01-19T01:36:27.930Z,51.09
2023-01-19T01:37:27.929Z,50.45
2023-01-19T01:38:27.918Z,51.72
2023-01-19T01:39:27.921Z,47.31
2023-01-19T01:40:27.907Z,54.61
2023-01-19T01:41:27.921Z,59.19
2023-01-19T01:42:27.906Z,46.21
2023-01-19T01:43:27.883Z,48.44
2023-01-19T01:44:27.873Z,47.72
2023-01-19T01:45:27.880Z,52.76
2023-01-19T01:46:28.770Z,60.70
2023-01-19T01:47:27.848Z,55.95
2023-01-19T01:48:27.841Z,61.25
2023-01-19T01:49:28.826Z,57.52
2023-01-19T01:50:27.842Z,56.10
2023-01-19T01:51:27.839Z,59.32
2023-01-19T01:52:27.824Z,56.66
2023-01-19T01:53:27.810Z,53.29
2023-01-19T01:54:27.800Z,60.89
2023-01-19T01:55:27.806Z,58.48
2023-01-19T01:56:27.792Z,54.52
2023-01-19T01:57:28.743Z,59.85
2023-01-19T01:58:27.782Z,51.61
2023-01-19T01:59:29.360Z,48.61
2023-01-19T02:00:27.766Z,61.10
2023-01-19T02:01:29.188Z,50.08
2023-01-19T02:02:27.741Z,59.15
2023-01-19T02:03:27.776Z,56.68
2023-01-19T02:04:27.725Z,63.17
2023-01-19T02:05:27.715Z,53.13
2023-01-19T02:06:27.714Z,56.07
2023-01-19T02:07:27.687Z,54.62
2023-01-19T02:08:27.688Z,55.84
2023-01-19T02:09:27.682Z,55.00
2023-01-19T02:10:27.721Z,60.90
2023-01-19T02:11:27.675Z,57.23
2023-01-19T02:12:27.656Z,51.66
2023-01-19T02:13:27.649Z,55.14
2023-01-19T02:14:27.651Z,52.29
2023-01-19T02:15:27.638Z,55.66
2023-01-19T02:16:27.714Z,49.72
2023-01-19T02:17:28.245Z,63.47
2023-01-19T02:18:27.622Z,50.80
2023-01-19T02:19:27.613Z,56.06
2023-01-19T02:20:27.604Z,54.08
2023-01-19T02:21:27.608Z,57.15
2023-01-19T02:22:27.589Z,44.59
2023-01-19T02:23:27.577Z,58.84
2023-01-19T02:24:27.579Z,50.47
2023-01-19T02:25:27.571Z,52.76
2023-01-19T02:26:27.569Z,46.36
2023-01-19T02:27:27.543Z,54.13
2023-01-19T02:28:27.542Z,51.67
2023-01-19T02:29:27.528Z,54.67
2023-01-19T02:30:27.531Z,44.08
2023-01-19T02:31:27.519Z,43.30
2023-01-19T02:32:27.514Z,49.63
2023-01-19T02:33:27.498Z,58.41
2023-01-19T02:34:27.487Z,53.38
2023-01-19T02:35:27.479Z,54.00
2023-01-19T02:36:27.499Z,49.78
2023-01-19T02:37:30.336Z,57.75
2023-01-19T02:38:27.456Z,55.72
2023-01-19T02:39:27.455Z,51.74
2023-01-19T02:40:27.443Z,50.86
2023-01-19T02:41:27.462Z,55.25
2023-01-19T02:42:27.421Z,57.12
2023-01-19T02:43:27.429Z,51.32
2023-01-19T02:44:27.406Z,46.45
2023-01-19T02:45:27.419Z,57.67
2023-01-19T02:46:27.804Z,51.55
2023-01-19T02:47:28.243Z,51.94
2023-01-19T02:48:27.383Z,57.03
2023-01-19T02:49:27.382Z,49.58
2023-01-19T02:50:27.383Z,60.25
2023-01-19T02:51:27.383Z,55.89
2023-01-19T02:52:27.352Z,57.38
2023-01-19T02:53:27.352Z,49.03
2023-01-19T02:54:27.336Z,60.00
2023-01-19T02:55:27.329Z,52.04
2023-01-19T02:56:28.352Z,55.87
2023-01-19T02:57:27.310Z,58.43
2023-01-19T02:58:27.311Z,59.92
2023-01-19T02:59:27.296Z,54.29
2023-01-19T03:00:27.286Z,55.81
2023-01-19T03:01:27.365Z,60.80
2023-01-19T03:02:27.345Z,56.93
2023-01-19T03:03:27.263Z,64.72
2023-01-19T03:04:27.274Z,56.96
2023-01-19T03:05:27.272Z,49.78
2023-01-19T03:06:27.252Z,47.79
2023-01-19T03:07:27.242Z,52.94
2023-01-19T03:08:27.232Z,62.53
2023-01-19T03:09:27.244Z,53.54
2023-01-19T03:10:27.828Z,53.61
2023-01-19T03:11:27.247Z,55.73
2023-01-19T03:12:27.222Z,63.69
2023-01-19T03:13:27.192Z,52.59
2023-01-19T03:14:27.189Z,60.44
2023-01-19T03:15:27.249Z,56.96
2023-01-19T03:16:27.197Z,57.94
2023-01-19T03:17:27.171Z,61.80
2023-01-19T03:18:27.160Z,58.66
2023-01-19T03:19:27.188Z,57.47
2023-01-19T03:20:27.138Z,55.89
2023-01-19T03:21:27.141Z,52.59
2023-01-19T03:22:27.135Z,53.21
2023-01-19T03:23:27.116Z,60.19
2023-01-19T03:24:27.106Z,58.42
2023-01-19T03:25:27.129Z,57.14
2023-01-19T03:26:27.090Z,58.65
2023-01-19T03:27:27.123Z,55.50
2023-01-19T03:28:27.084Z,58.07
2023-01-19T03:29:27.073Z,56.95
2023-01-19T03:30:27.091Z,52.26
2023-01-19T03:31:27.054Z,57.37
2023-01-19T03:32:28.048Z,52.51
2023-01-19T03:33:27.080Z,58.07
2023-01-19T03:34:27.028Z,54.71
2023-01-19T03:35:27.029Z,53.82
2023-01-19T03:36:27.031Z,57.59
2023-01-19T03:37:27.012Z,60.97
2023-01-19T03:38:26.988Z,52.38
2023-01-19T03:39:27.994Z,50.44
2023-01-19T03:40:26.982Z,58.19
2023-01-19T03:41:26.972Z,57.50
2023-01-19T03:42:26.967Z,54.68
2023-01-19T03:43:26.953Z,59.95
2023-01-19T03:44:26.956Z,58.09
2023-01-19T03:45:26.948Z,56.57
2023-01-19T03:46:27.037Z,60.43
2023-01-19T03:47:26.935Z,57.61
2023-01-19T03:48:26.919Z,59.44
2023-01-19T03:49:26.914Z,58.05
2023-01-19T03:50:26.906Z,60.54
2023-01-19T03:51:26.906Z,55.18
2023-01-19T03:52:26.920Z,57.71
2023-01-19T03:53:26.882Z,52.96
2023-01-19T03:54:26.873Z,54.40
2023-01-19T03:55:26.863Z,61.12
2023-01-19T03:56:26.858Z,55.66
2023-01-19T03:57:26.855Z,59.93
2023-01-19T03:58:26.841Z,52.01
2023-01-19T03:59:26.844Z,60.73
2023-01-19T04:00:26.831Z,56.84
2023-01-19T04:01:26.933Z,59.14
2023-01-19T04:02:26.896Z,56.08
2023-01-19T04:03:26.837Z,60.19
2023-01-19T04:04:26.815Z,58.77
2023-01-19T04:05:26.798Z,53.99
2023-01-19T04:06:26.794Z,60.49
2023-01-19T04:07:26.768Z,62.58
2023-01-19T04:08:27.775Z,59.55
2023-01-19T04:09:27.759Z,56.84
2023-01-19T04:10:26.774Z,59.05
2023-01-19T04:11:26.795Z,61.16
2023-01-19T04:12:26.734Z,66.23
2023-01-19T04:13:26.729Z,69.35
2023-01-19T04:14:26.721Z,67.12
2023-01-19T04:15:26.715Z,63.80
2023-01-19T04:16:26.712Z,64.20
2023-01-19T04:17:26.699Z,65.05
2023-01-19T04:18:26.694Z,63.69
2023-01-19T04:19:27.263Z,64.65
2023-01-19T04:20:26.669Z,57.28
2023-01-19T04:21:26.665Z,60.15
2023-01-19T04:22:26.664Z,61.34
2023-01-19T04:23:26.655Z,58.48
2023-01-19T04:24:26.637Z,64.52
2023-01-19T04:25:26.642Z,64.33
2023-01-19T04:26:26.627Z,62.98
2023-01-19T04:27:26.610Z,62.35
2023-01-19T04:28:26.625Z,58.03
2023-01-19T04:29:26.599Z,60.56
2023-01-19T04:30:26.594Z,61.96
2023-01-19T04:31:26.637Z,62.21
2023-01-19T04:32:26.576Z,63.47
2023-01-19T04:33:26.569Z,64.70
2023-01-19T04:34:26.586Z,60.88
2023-01-19T04:35:26.570Z,65.26
2023-01-19T04:36:26.572Z,63.60
2023-01-19T04:37:27.545Z,63.67
2023-01-19T04:38:26.633Z,63.61
2023-01-19T04:39:26.514Z,65.46
2023-01-19T04:40:26.526Z,63.44
2023-01-19T04:41:26.509Z,57.38
2023-01-19T04:42:26.508Z,63.48
2023-01-19T04:43:26.481Z,62.29
2023-01-19T04:44:26.471Z,62.41
2023-01-19T04:45:26.467Z,58.47
2023-01-19T04:46:26.555Z,63.96
2023-01-19T04:47:27.340Z,60.98
2023-01-19T04:48:26.447Z,64.53
2023-01-19T04:49:26.437Z,60.86
2023-01-19T04:50:26.428Z,60.44
2023-01-19T04:51:26.432Z,63.91
2023-01-19T04:52:26.443Z,69.86
2023-01-19T04:53:26.416Z,62.20
2023-01-19T04:54:26.466Z,60.85
2023-01-19T04:55:26.425Z,59.67
2023-01-19T04:56:26.403Z,62.03
2023-01-19T04:57:26.373Z,67.34
2023-01-19T04:58:26.369Z,62.50
2023-01-19T04:59:26.399Z,62.68
2023-01-19T05:00:26.362Z,66.79
2023-01-19T05:01:26.478Z,62.03
2023-01-19T05:02:26.341Z,61.40
2023-01-19T05:03:26.690Z,64.79
2023-01-19T05:04:27.329Z,65.83
2023-01-19T05:05:26.312Z,63.52
2023-01-19T05:06:26.320Z,61.95
2023-01-19T05:07:26.299Z,62.47
2023-01-19T05:08:26.310Z,57.50
2023-01-19T05:09:26.293Z,62.10
2023-01-19T05:10:26.296Z,59.89
2023-01-19T05:11:26.285Z,60.73
2023-01-19T05:12:26.279Z,64.94
2023-01-19T05:13:26.258Z,63.73
2023-01-19T05:14:26.277Z,63.23
2023-01-19T05:15:26.243Z,63.81
2023-01-19T05:16:26.341Z,60.83
2023-01-19T05:17:26.232Z,64.50
2023-01-19T05:18:26.216Z,67.37
2023-01-19T05:19:26.211Z,66.40
2023-01-19T05:20:26.216Z,63.49
2023-01-19T05:21:26.204Z,64.11
2023-01-19T05:22:26.188Z,63.70
2023-01-19T05:23:26.239Z,68.55
2023-01-19T05:24:26.169Z,65.91
2023-01-19T05:25:26.156Z,66.74
2023-01-19T05:26:26.152Z,66.58
2023-01-19T05:27:26.158Z,68.86
2023-01-19T05:28:26.141Z,68.01
2023-01-19T05:29:26.156Z,63.39
2023-01-19T05:30:26.132Z,65.50
2023-01-19T05:31:26.259Z,65.55
2023-01-19T05:32:26.132Z,68.84
2023-01-19T05:33:26.095Z,65.73
2023-01-19T05:34:26.858Z,64.63
2023-01-19T05:35:35.401Z,66.26
2023-01-19T05:36:28.075Z,66.52
2023-01-19T05:37:26.067Z,67.17
2023-01-19T05:38:34.473Z,66.56
2023-01-19T05:39:28.777Z,64.79
2023-01-19T05:40:26.086Z,64.71
2023-01-19T05:41:26.032Z,64.11
2023-01-19T05:42:26.032Z,66.17
2023-01-19T05:43:26.023Z,64.21
2023-01-19T05:44:26.018Z,63.03
2023-01-19T05:45:26.001Z,64.82
2023-01-19T05:46:26.057Z,62.27
2023-01-19T05:47:27.843Z,65.70
2023-01-19T05:48:25.995Z,66.61
2023-01-19T05:49:25.980Z,67.78
2023-01-19T05:50:25.969Z,70.59
2023-01-19T05:51:25.956Z,65.82
2023-01-19T05:52:25.944Z,63.51
2023-01-19T05:53:25.962Z,68.57
2023-01-19T05:54:25.950Z,68.64
2023-01-19T05:55:25.929Z,66.65
2023-01-19T05:56:25.936Z,64.21
2023-01-19T05:57:25.912Z,64.55
2023-01-19T05:58:25.898Z,65.21
2023-01-19T05:59:25.895Z,67.01
2023-01-19T06:00:25.892Z,66.81
2023-01-19T06:01:25.930Z,66.11
2023-01-19T06:02:25.956Z,68.44
2023-01-19T06:03:25.912Z,69.66
2023-01-19T06:04:25.847Z,66.18
2023-01-19T06:05:26.875Z,66.54
2023-01-19T06:06:25.838Z,66.25
2023-01-19T06:07:28.212Z,63.47
2023-01-19T06:08:25.834Z,67.05
2023-01-19T06:09:25.820Z,66.91
2023-01-19T06:10:25.823Z,64.25
2023-01-19T06:11:25.793Z,64.81
2023-01-19T06:12:25.804Z,67.40
2023-01-19T06:13:25.787Z,64.46
2023-01-19T06:14:25.787Z,66.83
2023-01-19T06:15:25.778Z,65.25
2023-01-19T06:16:25.837Z,64.52
2023-01-19T06:17:25.750Z,68.49
2023-01-19T06:18:25.742Z,66.43
2023-01-19T06:19:25.750Z,66.74
2023-01-19T06:20:25.738Z,69.23
2023-01-19T06:21:25.722Z,66.53
2023-01-19T06:22:26.721Z,69.49
2023-01-19T06:23:25.718Z,66.26
2023-01-19T06:24:26.723Z,66.06
2023-01-19T06:25:25.692Z,71.05
2023-01-19T06:26:25.691Z,67.95
2023-01-19T06:27:25.679Z,66.37
2023-01-19T06:28:25.694Z,67.91
2023-01-19T06:29:27.039Z,67.94
2023-01-19T06:30:25.661Z,68.92
2023-01-19T06:31:26.317Z,67.93
2023-01-19T06:32:25.643Z,69.32
2023-01-19T06:33:25.623Z,68.14
2023-01-19T06:34:25.613Z,68.55
2023-01-19T06:35:25.616Z,65.62
2023-01-19T06:36:25.594Z,66.30
2023-01-19T06:37:25.588Z,67.99
2023-01-19T06:38:25.612Z,66.57
2023-01-19T06:39:25.585Z,68.91
2023-01-19T06:40:26.340Z,68.54
2023-01-19T06:41:25.577Z,68.08
2023-01-19T06:42:25.563Z,67.33
2023-01-19T06:43:25.555Z,67.87
2023-01-19T06:44:25.545Z,64.96
2023-01-19T06:45:26.391Z,66.41
2023-01-19T06:46:26.284Z,69.41
2023-01-19T06:47:25.537Z,66.81
2023-01-19T06:48:25.521Z,67.58
2023-01-19T06:49:25.505Z,67.29
2023-01-19T06:50:26.277Z,68.30
2023-01-19T06:51:25.513Z,66.95
2023-01-19T06:52:25.480Z,64.79
2023-01-19T06:53:25.470Z,68.51
2023-01-19T06:54:25.473Z,68.78
2023-01-19T06:55:25.463Z,66.71
2023-01-19T06:56:25.451Z,67.70
2023-01-19T06:57:25.439Z,69.02
2023-01-19T06:58:25.447Z,67.86
2023-01-19T06:59:25.871Z,66.70
2023-01-19T07:00:25.417Z,68.32
2023-01-19T07:01:25.518Z,69.30
2023-01-19T07:02:27.952Z,68.46
2023-01-19T07:03:25.494Z,66.71
2023-01-19T07:04:26.279Z,72.16
2023-01-19T07:05:25.380Z,74.70
2023-01-19T07:06:26.362Z,66.43
2023-01-19T07:07:25.362Z,66.31
2023-01-19T07:08:25.361Z,66.62
2023-01-19T07:09:25.360Z,65.67
2023-01-19T07:10:25.351Z,65.89
2023-01-19T07:11:32.296Z,63.59
2023-01-19T07:12:26.330Z,65.99
2023-01-19T07:13:25.337Z,67.40
2023-01-19T07:14:25.303Z,63.66
2023-01-19T07:15:25.334Z,67.51
2023-01-19T07:16:25.380Z,66.31
2023-01-19T07:17:25.286Z,67.20
2023-01-19T07:18:25.288Z,66.14
2023-01-19T07:19:25.280Z,65.93
2023-01-19T07:20:25.266Z,67.58
2023-01-19T07:21:25.267Z,66.67
2023-01-19T07:22:25.252Z,66.46
2023-01-19T07:23:25.236Z,67.25
2023-01-19T07:24:25.295Z,66.94
2023-01-19T07:25:25.252Z,66.35
2023-01-19T07:26:25.228Z,71.20
2023-01-19T07:27:25.242Z,63.95
2023-01-19T07:28:25.203Z,68.40
2023-01-19T07:29:25.199Z,65.89
2023-01-19T07:30:25.228Z,67.17
2023-01-19T07:31:25.282Z,67.86
2023-01-19T07:32:25.188Z,66.07
2023-01-19T07:33:25.174Z,65.32
2023-01-19T07:34:25.207Z,66.09
2023-01-19T07:35:25.145Z,66.17
2023-01-19T07:36:25.859Z,68.56
2023-01-19T07:37:25.788Z,66.07
2023-01-19T07:38:25.122Z,66.56
2023-01-19T07:39:25.366Z,65.58
2023-01-19T07:40:25.113Z,64.60
2023-01-19T07:41:25.098Z,66.04
2023-01-19T07:42:25.093Z,67.94
2023-01-19T07:43:25.079Z,65.75
2023-01-19T07:44:25.093Z,63.33
2023-01-19T07:45:27.149Z,66.41
2023-01-19T07:46:25.215Z,64.56
2023-01-19T07:47:25.054Z,66.21
2023-01-19T07:48:25.783Z,67.56
2023-01-19T07:49:25.045Z,67.03
2023-01-19T07:50:25.033Z,68.27
2023-01-19T07:51:25.026Z,66.63
2023-01-19T07:52:25.014Z,68.31
2023-01-19T07:53:25.038Z,66.83
2023-01-19T07:54:25.000Z,66.65
2023-01-19T07:55:24.997Z,70.49
2023-01-19T07:56:24.988Z,67.18
2023-01-19T07:57:24.984Z,67.31
2023-01-19T07:58:24.977Z,66.90
2023-01-19T07:59:24.977Z,68.50
2023-01-19T08:00:24.984Z,67.03
2023-01-19T08:01:25.866Z,67.52
2023-01-19T08:02:26.932Z,68.46
2023-01-19T08:03:24.936Z,69.67
2023-01-19T08:04:24.938Z,65.83
2023-01-19T08:05:26.788Z,65.66
2023-01-19T08:06:27.792Z,64.33
2023-01-19T08:07:24.918Z,65.92
2023-01-19T08:08:24.909Z,65.03
2023-01-19T08:09:24.881Z,65.87
2023-01-19T08:10:24.930Z,63.90
2023-01-19T08:11:25.858Z,65.81
2023-01-19T08:12:26.782Z,65.99
2023-01-19T08:13:24.851Z,65.49
2023-01-19T08:14:24.876Z,66.83
2023-01-19T08:15:25.051Z,66.71
2023-01-19T08:16:24.843Z,65.96
2023-01-19T08:17:24.831Z,66.69
2023-01-19T08:18:24.813Z,68.84
2023-01-19T08:19:24.805Z,66.08
2023-01-19T08:20:24.873Z,68.03
2023-01-19T08:21:24.799Z,68.11
2023-01-19T08:22:24.795Z,66.47
2023-01-19T08:23:24.787Z,66.88
2023-01-19T08:24:25.297Z,69.40
2023-01-19T08:25:24.780Z,67.11
2023-01-19T08:26:24.753Z,68.09
2023-01-19T08:27:24.780Z,69.40
2023-01-19T08:28:24.893Z,66.45
2023-01-19T08:29:24.720Z,69.12
2023-01-19T08:30:24.718Z,69.98
2023-01-19T08:31:25.162Z,68.69
2023-01-19T08:32:26.445Z,67.06
2023-01-19T08:33:24.701Z,71.02
2023-01-19T08:34:24.967Z,71.95
2023-01-19T08:35:24.684Z,71.08
2023-01-19T08:36:24.667Z,70.93
2023-01-19T08:37:24.662Z,69.67
2023-01-19T08:38:24.697Z,67.75
2023-01-19T08:39:24.648Z,64.95
2023-01-19T08:40:24.651Z,65.78
2023-01-19T08:41:24.633Z,67.32
2023-01-19T08:42:24.636Z,66.62
2023-01-19T08:43:24.615Z,66.66
2023-01-19T08:44:24.616Z,65.26
2023-01-19T08:45:25.283Z,67.35
2023-01-19T08:46:24.651Z,65.24
2023-01-19T08:47:24.622Z,66.36
2023-01-19T08:48:24.592Z,63.73
2023-01-19T08:49:24.564Z,66.19
2023-01-19T08:50:24.593Z,66.76
2023-01-19T08:51:24.569Z,66.82
2023-01-19T08:52:24.548Z,66.49
2023-01-19T08:53:24.538Z,66.36
2023-01-19T08:54:26.296Z,67.95
2023-01-19T08:55:24.514Z,65.63
2023-01-19T08:56:24.515Z,66.92
2023-01-19T08:57:24.506Z,64.89
2023-01-19T08:58:24.529Z,64.33
2023-01-19T08:59:24.495Z,66.27
2023-01-19T09:00:24.480Z,67.34
2023-01-19T09:01:24.584Z,66.89
2023-01-19T09:02:24.527Z,67.81
2023-01-19T09:05:32.290Z,66.63
2023-01-19T09:06:32.377Z,66.98
2023-01-19T09:07:33.997Z,66.05
2023-01-19T09:08:32.401Z,66.84
2023-01-19T09:09:32.356Z,64.92
2023-01-19T09:10:32.371Z,65.84
2023-01-19T09:11:32.357Z,65.88
2023-01-19T09:12:32.346Z,66.04
2023-01-19T09:13:32.674Z,66.12
2023-01-19T09:14:32.339Z,67.68
2023-01-19T09:15:32.314Z,67.18
2023-01-19T09:16:32.304Z,67.57
2023-01-19T09:17:33.227Z,68.86
2023-01-19T09:18:32.310Z,66.63
2023-01-19T09:19:33.753Z,64.97
2023-01-19T09:20:32.272Z,65.64
2023-01-19T09:21:33.270Z,69.19
2023-01-19T09:22:32.250Z,68.46
2023-01-19T09:23:32.242Z,65.14
2023-01-19T09:24:33.167Z,68.95
2023-01-19T09:25:32.238Z,67.23
2023-01-19T09:26:33.163Z,65.83
2023-01-19T09:27:33.219Z,66.43
2023-01-19T09:28:32.225Z,64.88
2023-01-19T09:29:32.231Z,65.29
2023-01-19T09:30:34.792Z,67.19
2023-01-19T09:31:32.225Z,66.55
2023-01-19T09:32:32.181Z,66.19
2023-01-19T09:33:32.181Z,68.14
2023-01-19T09:34:32.179Z,65.25
2023-01-19T09:35:32.156Z,65.99
2023-01-19T09:36:32.160Z,66.61
2023-01-19T09:37:32.137Z,64.40
2023-01-19T09:38:32.143Z,67.54
2023-01-19T09:39:32.160Z,67.78
2023-01-19T09:40:32.143Z,66.43
2023-01-19T09:41:32.110Z,67.06
2023-01-19T09:42:32.103Z,67.07
2023-01-19T09:43:32.106Z,65.02
2023-01-19T09:44:32.087Z,65.30
2023-01-19T09:45:32.107Z,65.88
2023-01-19T09:46:32.227Z,65.06
2023-01-19T09:47:32.082Z,63.75
2023-01-19T09:48:32.068Z,66.24
2023-01-19T09:49:32.169Z,65.53
2023-01-19T09:50:32.062Z,67.74
2023-01-19T09:51:32.035Z,66.64
2023-01-19T09:52:32.049Z,64.96
2023-01-19T09:53:32.012Z,65.74
2023-01-19T09:54:32.018Z,67.56
2023-01-19T09:55:32.009Z,66.92
2023-01-19T09:56:32.743Z,66.43
2023-01-19T09:57:31.986Z,66.66
2023-01-19T09:58:31.977Z,66.86
2023-01-19T09:59:31.995Z,65.32
2023-01-19T10:00:31.985Z,66.86
2023-01-19T10:01:35.147Z,65.78
2023-01-19T10:02:31.945Z,65.38
2023-01-19T10:03:31.947Z,68.21
2023-01-19T10:04:31.946Z,65.88
2023-01-19T10:05:31.935Z,66.84
2023-01-19T10:06:32.924Z,65.96
2023-01-19T10:07:31.910Z,66.23
2023-01-19T10:08:31.894Z,65.78
2023-01-19T10:09:31.899Z,66.22
2023-01-19T10:10:31.900Z,64.55
2023-01-19T10:11:41.875Z,64.98
2023-01-19T10:12:33.931Z,66.76
2023-01-19T10:13:31.854Z,64.01
2023-01-19T10:14:32.852Z,68.40
2023-01-19T10:15:31.853Z,65.28
2023-01-19T10:16:31.858Z,67.64
2023-01-19T10:17:31.844Z,67.12
2023-01-19T10:18:31.851Z,69.41
2023-01-19T10:19:31.816Z,66.46
2023-01-19T10:20:31.883Z,68.15
2023-01-19T10:21:32.782Z,67.13
2023-01-19T10:22:32.792Z,65.94
2023-01-19T10:23:33.675Z,66.66
2023-01-19T10:24:33.809Z,67.52
2023-01-19T10:25:31.905Z,66.88
2023-01-19T10:26:32.769Z,66.54
2023-01-19T10:27:32.758Z,69.47
2023-01-19T10:28:31.790Z,67.74
2023-01-19T10:29:31.753Z,66.75
2023-01-19T10:30:31.752Z,68.72
2023-01-19T10:31:33.750Z,69.80
2023-01-19T10:32:31.737Z,67.91
2023-01-19T10:33:31.712Z,67.60
2023-01-19T10:34:31.741Z,66.78
2023-01-19T10:35:31.731Z,66.55
2023-01-19T10:36:31.679Z,67.56
2023-01-19T10:37:31.693Z,68.20
2023-01-19T10:38:31.669Z,67.58
2023-01-19T10:39:32.158Z,65.89
2023-01-19T10:40:31.659Z,69.59
2023-01-19T10:41:31.682Z,66.51
2023-01-19T10:42:31.662Z,66.48
2023-01-19T10:43:31.654Z,66.19
2023-01-19T10:44:31.795Z,67.15
2023-01-19T10:45:34.879Z,67.62
2023-01-19T10:46:31.653Z,67.12
2023-01-19T10:47:32.217Z,68.38
2023-01-19T10:48:31.585Z,67.42
2023-01-19T10:49:31.697Z,68.98
2023-01-19T10:50:31.578Z,65.88
2023-01-19T10:51:31.564Z,67.57
2023-01-19T10:52:31.569Z,68.12
2023-01-19T10:53:33.180Z,68.40
2023-01-19T10:54:31.607Z,67.99
2023-01-19T10:55:31.573Z,68.79
2023-01-19T10:56:31.518Z,68.49
2023-01-19T10:57:31.618Z,68.91
2023-01-19T10:58:31.511Z,68.26
2023-01-19T10:59:31.577Z,69.54
2023-01-19T11:00:31.529Z,68.08
2023-01-19T11:01:31.679Z,68.27
2023-01-19T11:02:31.705Z,70.38
2023-01-19T11:03:31.555Z,68.83
2023-01-19T11:04:31.512Z,69.56
2023-01-19T11:05:31.594Z,69.06
2023-01-19T11:06:32.224Z,69.23
2023-01-19T11:07:31.451Z,69.46
2023-01-19T11:08:31.495Z,68.25
2023-01-19T11:09:31.434Z,69.51
2023-01-19T11:10:31.449Z,67.20
2023-01-19T11:11:31.416Z,66.98
2023-01-19T11:12:31.407Z,72.35
2023-01-19T11:13:31.417Z,70.10
2023-01-19T11:14:31.378Z,70.21
2023-01-19T11:15:32.362Z,67.42
2023-01-19T11:16:31.435Z,67.07
2023-01-19T11:17:32.311Z,67.66
2023-01-19T11:18:31.454Z,69.29
2023-01-19T11:19:31.338Z,70.48
2023-01-19T11:20:31.352Z,67.01
2023-01-19T11:21:33.282Z,72.10
2023-01-19T11:22:31.331Z,67.85
2023-01-19T11:23:31.781Z,69.94
2023-01-19T11:24:31.303Z,69.34
2023-01-19T11:27:38.658Z,69.46
2023-01-19T11:28:38.674Z,70.21
2023-01-19T11:29:38.625Z,67.18
2023-01-19T11:30:39.497Z,70.27
2023-01-19T11:31:39.741Z,68.81
2023-01-19T11:32:39.724Z,69.68
2023-01-19T11:33:39.780Z,69.44
2023-01-19T11:34:40.713Z,70.00
2023-01-19T11:35:43.046Z,71.24
2023-01-19T11:36:39.671Z,70.10
2023-01-19T11:37:40.682Z,68.88
2023-01-19T11:38:39.675Z,70.46
2023-01-19T11:39:39.653Z,69.31
2023-01-19T11:40:40.512Z,67.72
2023-01-19T11:41:40.590Z,68.54
2023-01-19T11:44:45.970Z,69.18
2023-01-19T11:45:46.007Z,69.10
2023-01-19T11:46:47.470Z,67.44
2023-01-19T11:47:47.152Z,69.92
2023-01-19T11:48:47.051Z,67.63
2023-01-19T11:49:47.018Z,68.43
2023-01-19T11:50:47.008Z,70.02
2023-01-19T11:51:47.057Z,67.83
2023-01-19T21:26:35.423Z,57.66
2023-01-19T21:27:35.422Z,59.16
2023-01-19T21:28:35.409Z,63.05
2023-01-19T21:29:35.399Z,63.16
2023-01-19T21:30:36.502Z,64.17
2023-01-19T21:31:36.765Z,63.62
2023-01-19T21:32:36.499Z,64.70
2023-01-19T21:33:36.529Z,63.73
2023-01-19T21:34:37.169Z,58.51
2023-01-19T21:35:37.247Z,63.92
2023-01-19T21:36:36.463Z,62.00
2023-01-19T21:37:36.433Z,63.19
2023-01-19T21:38:37.246Z,60.33
2023-01-19T21:39:36.421Z,59.79
2023-01-19T21:40:36.399Z,64.66
2023-01-19T21:41:36.434Z,59.24
2023-01-19T21:42:37.245Z,61.54
2023-01-19T21:43:36.394Z,60.48
2023-01-19T21:44:36.384Z,61.48
2023-01-19T21:45:36.398Z,66.32
2023-01-19T21:46:36.357Z,62.54
2023-01-19T21:47:36.362Z,59.11
2023-01-19T21:48:36.350Z,61.38
2023-01-19T21:49:36.340Z,55.34
2023-01-19T21:50:36.326Z,59.90
2023-01-19T21:51:36.325Z,60.07
2023-01-19T21:52:36.318Z,59.61
2023-01-19T21:53:36.345Z,58.90
2023-01-19T21:54:36.301Z,63.71
2023-01-19T21:55:36.299Z,62.90
2023-01-19T21:56:36.281Z,58.19
2023-01-19T21:57:36.358Z,61.79
2023-01-19T21:58:36.275Z,62.55
2023-01-19T21:59:36.281Z,55.98
2023-01-19T22:00:36.281Z,62.16
2023-01-19T22:01:36.418Z,55.30
2023-01-19T22:02:39.415Z,59.71
2023-01-19T22:03:37.294Z,62.92
2023-01-19T22:04:38.777Z,60.24
2023-01-19T22:06:13.228Z,52.56
2023-01-19T22:06:36.836Z,61.17
2023-01-19T22:07:36.216Z,54.77
2023-01-19T22:08:36.198Z,61.91
2023-01-19T22:10:09.254Z,58.22
2023-01-19T22:10:36.170Z,59.66
2023-01-19T22:11:36.156Z,53.26
2023-01-19T22:12:36.721Z,57.44
2023-01-19T22:13:36.144Z,61.38
2023-01-19T22:14:36.128Z,59.76
2023-01-19T22:15:37.818Z,61.33
2023-01-19T22:16:36.906Z,59.95
2023-01-19T22:17:36.142Z,60.53
2023-01-19T22:18:36.181Z,61.22
2023-01-19T22:19:39.738Z,58.02
2023-01-19T22:20:36.085Z,60.12
2023-01-19T22:21:39.811Z,56.33
2023-01-19T22:22:36.076Z,57.39
2023-01-19T22:23:37.788Z,51.25
2023-01-19T22:24:37.808Z,58.33
2023-01-19T22:25:36.044Z,59.68
2023-01-19T22:26:36.811Z,58.98
2023-01-19T22:27:39.748Z,57.77
2023-01-19T22:28:36.029Z,53.97
2023-01-19T22:29:36.020Z,56.57
2023-01-19T22:30:36.159Z,56.03
2023-01-19T22:31:36.109Z,56.56
2023-01-19T22:32:36.009Z,49.61
2023-01-19T22:33:35.999Z,58.26
2023-01-19T22:34:35.991Z,58.24